createdAt,value
2022-10-13T00:01:34.309Z,101717.46
2022-10-13T00:06:40.838Z,101716.45
2022-10-13T00:11:46.707Z,101712.77
2022-10-13T00:16:52.628Z,101711.56
2022-10-13T00:21:58.510Z,101713.72
2022-10-13T00:27:04.342Z,101712.94
2022-10-13T00:32:10.171Z,101704.20
2022-10-13T00:37:16.118Z,101702.64
2022-10-13T00:42:23.514Z,101702.34
2022-10-13T00:47:36.500Z,101702.56
2022-10-13T00:52:43.979Z,101703.44
2022-10-13T00:57:56.177Z,101700.28
2022-10-13T01:03:08.355Z,101690.95
2022-10-13T01:08:32.243Z,101684.98
2022-10-13T01:13:42.770Z,101681.11
2022-10-13T01:19:00.486Z,101681.49
2022-10-13T01:24:28.610Z,101675.84
2022-10-13T01:30:16.689Z,101671.73
2022-10-13T01:35:33.421Z,101671.66
2022-10-13T01:40:46.246Z,101677.55
2022-10-13T01:45:57.723Z,101677.58
2022-10-13T01:51:06.503Z,101674.45
2022-10-13T01:56:12.552Z,101666.45
2022-10-13T02:01:40.527Z,101665.27
2022-10-13T02:06:57.540Z,101666.33
2022-10-13T02:12:09.982Z,101658.48
2022-10-13T02:17:18.604Z,101652.60
2022-10-13T02:22:29.776Z,101651.16
2022-10-13T02:27:38.105Z,101651.42
2022-10-13T02:32:43.952Z,101649.10
2022-10-13T02:37:49.746Z,101648.52
2022-10-13T02:42:55.513Z,101648.39
2022-10-13T02:48:01.562Z,101647.70
2022-10-13T02:53:07.358Z,101649.28
2022-10-13T02:58:13.133Z,101649.13
2022-10-13T03:03:19.256Z,101649.47
2022-10-13T03:08:25.172Z,101646.80
2022-10-13T03:13:31.206Z,101646.17
2022-10-13T03:18:44.083Z,101640.39
2022-10-13T03:23:49.949Z,101640.84
2022-10-13T03:28:55.619Z,101637.08
2022-10-13T03:34:01.396Z,101631.35
2022-10-13T03:39:07.224Z,101629.23
2022-10-13T03:44:14.582Z,101629.02
2022-10-13T03:49:20.682Z,101631.79
2022-10-13T03:54:26.573Z,101626.15
2022-10-13T03:59:36.623Z,101628.59
2022-10-13T04:04:42.816Z,101632.56
2022-10-13T04:09:48.631Z,101636.50
2022-10-13T04:14:54.479Z,101638.55
2022-10-13T04:20:00.177Z,101640.16
2022-10-13T04:25:07.578Z,101643.09
2022-10-13T04:30:14.687Z,101649.84
2022-10-13T04:35:20.673Z,101651.98
2022-10-13T04:40:27.522Z,101648.48
2022-10-13T04:45:33.911Z,101653.01
2022-10-13T04:50:39.762Z,101653.81
2022-10-13T04:55:45.574Z,101656.15
2022-10-13T05:00:51.778Z,101652.36
2022-10-13T05:05:57.933Z,101653.23
2022-10-13T05:11:04.077Z,101650.42
2022-10-13T05:16:12.879Z,101650.85
2022-10-13T05:21:20.831Z,101647.66
2022-10-13T05:26:29.285Z,101644.96
2022-10-13T05:31:37.555Z,101642.17
2022-10-13T05:36:43.396Z,101641.20
2022-10-13T05:41:49.317Z,101638.61
2022-10-13T05:47:02.521Z,101643.28
2022-10-13T05:52:12.813Z,101651.42
2022-10-13T05:57:21.950Z,101649.27
2022-10-13T06:02:35.129Z,101653.71
2022-10-13T06:07:41.138Z,101655.25
2022-10-13T06:12:47.237Z,101655.98
2022-10-13T06:17:53.212Z,101656.17
2022-10-13T06:22:59.353Z,101656.30
2022-10-13T06:28:05.413Z,101661.52
2022-10-13T06:33:11.687Z,101657.83
2022-10-13T06:38:18.578Z,101654.64
2022-10-13T06:43:34.352Z,101654.80
2022-10-13T06:48:45.083Z,101651.11
2022-10-13T06:53:50.980Z,101647.48
2022-10-13T06:59:00.812Z,101644.19
2022-10-13T07:04:07.323Z,101641.57
2022-10-13T07:09:13.223Z,101644.65
2022-10-13T07:14:19.206Z,101644.56
2022-10-13T07:19:25.201Z,101641.20
2022-10-13T07:24:31.542Z,101637.17
2022-10-13T07:29:37.967Z,101628.04
2022-10-13T07:34:44.018Z,101620.52
2022-10-13T07:39:49.794Z,101607.81
2022-10-13T07:44:55.638Z,101606.72
2022-10-13T07:50:01.909Z,101599.13
2022-10-13T07:55:09.194Z,101594.76
2022-10-13T08:00:15.853Z,101586.52
2022-10-13T08:05:21.650Z,101581.55
2022-10-13T08:10:29.219Z,101581.54
2022-10-13T08:15:35.712Z,101580.81
2022-10-13T08:20:43.925Z,101573.55
2022-10-13T08:25:50.716Z,101569.30
2022-10-13T08:30:59.951Z,101570.90
2022-10-13T08:36:06.222Z,101571.20
2022-10-13T08:41:19.288Z,101570.08
2022-10-13T08:46:28.812Z,101570.23
2022-10-13T08:51:36.350Z,101565.17
2022-10-13T08:56:45.810Z,101558.35
2022-10-13T09:01:55.479Z,101563.31
2022-10-13T09:07:12.137Z,101560.42
2022-10-13T09:12:22.253Z,101556.05
2022-10-13T09:17:29.854Z,101554.81
2022-10-13T09:22:37.159Z,101553.08
2022-10-13T09:27:48.408Z,101550.75
2022-10-13T09:33:06.341Z,101543.35
2022-10-13T09:38:15.738Z,101540.98
2022-10-13T09:43:30.471Z,101541.52
2022-10-13T09:48:39.266Z,101533.61
2022-10-13T09:53:49.364Z,101527.55
2022-10-13T09:59:07.513Z,101518.59
2022-10-13T10:04:18.024Z,101508.05
2022-10-13T10:09:37.422Z,101498.75
2022-10-13T10:14:41.693Z,101491.16
2022-10-13T10:19:58.463Z,101483.42
2022-10-13T10:25:18.358Z,101484.03
2022-10-13T10:30:27.340Z,101474.33
2022-10-13T10:35:44.416Z,101464.27
2022-10-13T10:40:57.288Z,101462.23
2022-10-13T10:46:06.072Z,101455.27
2022-10-13T10:51:14.447Z,101454.27
2022-10-13T10:56:27.812Z,101458.30
2022-10-13T11:01:44.697Z,101452.38
2022-10-13T11:06:50.672Z,101444.66
2022-10-13T11:11:56.845Z,101437.67
2022-10-13T11:17:20.380Z,101430.25
2022-10-13T11:22:27.969Z,101419.47
2022-10-13T11:27:45.046Z,101415.18
2022-10-13T11:32:57.079Z,101407.37
2022-10-13T11:38:21.403Z,101407.28
2022-10-13T11:43:41.970Z,101396.25
2022-10-13T11:49:25.265Z,101385.20
2022-10-13T11:54:36.991Z,101379.31
2022-10-13T11:59:48.217Z,101370.94
2022-10-13T12:05:07.442Z,101365.33
2022-10-13T12:10:23.598Z,101361.91
2022-10-13T12:15:35.384Z,101358.04
2022-10-13T12:20:41.439Z,101345.94
2022-10-13T12:25:56.740Z,101334.89
2022-10-13T12:31:03.073Z,101333.95
2022-10-13T12:36:20.000Z,101329.47
2022-10-13T12:41:28.839Z,101327.51
2022-10-13T12:46:42.177Z,101330.39
2022-10-13T12:51:50.843Z,101323.87
2022-10-13T12:57:00.145Z,101317.91
2022-10-13T13:02:21.254Z,101317.19
2022-10-13T13:07:36.879Z,101316.21
2022-10-13T13:12:43.697Z,101312.80
2022-10-13T13:17:58.425Z,101310.48
2022-10-13T13:23:05.831Z,101310.14
2022-10-13T13:28:15.969Z,101301.81
2022-10-13T13:33:21.794Z,101304.86
2022-10-13T13:38:29.355Z,101297.81
2022-10-13T13:43:35.120Z,101292.45
2022-10-13T13:48:40.963Z,101290.17
2022-10-13T13:53:46.936Z,101283.77
2022-10-13T13:58:54.030Z,101285.48
2022-10-13T14:03:59.869Z,101283.39
2022-10-13T14:09:07.115Z,101283.60
2022-10-13T14:14:13.027Z,101280.23
2022-10-13T14:19:18.740Z,101281.27
2022-10-13T14:24:24.835Z,101279.71
2022-10-13T14:29:30.917Z,101275.80
2022-10-13T14:34:36.615Z,101279.34
2022-10-13T14:39:42.312Z,101276.95
2022-10-13T14:44:48.467Z,101267.88
2022-10-13T14:49:54.247Z,101268.46
2022-10-13T14:54:59.977Z,101269.55
2022-10-13T15:00:06.840Z,101261.77
2022-10-13T15:05:12.876Z,101259.34
2022-10-13T15:10:18.969Z,101253.81
2022-10-13T15:15:24.733Z,101263.39
2022-10-13T15:20:31.798Z,101260.35
2022-10-13T15:25:37.938Z,101249.65
2022-10-13T15:30:45.261Z,101242.25
2022-10-13T15:35:53.502Z,101228.85
2022-10-13T15:41:02.801Z,101231.68
2022-10-13T15:46:12.219Z,101233.50
2022-10-13T15:51:20.322Z,101231.14
2022-10-13T15:56:26.226Z,101232.45
2022-10-13T16:01:32.148Z,101226.05
2022-10-13T16:06:38.541Z,101225.71
2022-10-13T16:11:44.402Z,101225.83
2022-10-13T16:16:50.232Z,101235.23
2022-10-13T16:21:55.888Z,101240.99
2022-10-13T16:27:01.699Z,101240.77
2022-10-13T16:32:08.765Z,101243.17
2022-10-13T16:37:14.601Z,101240.85
2022-10-13T16:42:21.662Z,101235.48
2022-10-13T16:47:27.505Z,101238.27
2022-10-13T16:52:33.875Z,101238.73
2022-10-13T16:57:40.155Z,101233.79
2022-10-13T17:02:45.973Z,101227.77
2022-10-13T17:07:52.930Z,101222.45
2022-10-13T17:12:58.811Z,101220.98
2022-10-13T17:18:04.669Z,101219.14
2022-10-13T17:23:10.450Z,101220.58
2022-10-13T17:28:16.509Z,101221.33
2022-10-13T17:33:22.366Z,101222.02
2022-10-13T17:38:28.617Z,101217.19
2022-10-13T17:43:37.400Z,101212.71
2022-10-13T17:48:43.990Z,101208.40
2022-10-13T17:53:51.301Z,101207.38
2022-10-13T17:58:58.581Z,101208.24
2022-10-13T18:04:08.568Z,101206.52
2022-10-13T18:09:16.760Z,101209.97
2022-10-13T18:14:23.960Z,101204.77
2022-10-13T18:19:29.754Z,101204.25
2022-10-13T18:24:36.649Z,101201.98
2022-10-13T18:29:43.147Z,101202.48
2022-10-13T18:34:48.942Z,101200.53
2022-10-13T18:39:54.762Z,101202.25
2022-10-13T18:45:00.463Z,101197.59
2022-10-13T18:50:07.810Z,101196.02
2022-10-13T18:55:15.305Z,101191.00
2022-10-13T19:00:21.771Z,101192.70
2022-10-13T19:05:27.701Z,101190.40
2022-10-13T19:10:37.006Z,101187.91
2022-10-13T19:15:42.830Z,101182.36
2022-10-13T19:20:48.632Z,101172.04
2022-10-13T19:25:54.553Z,101162.58
2022-10-13T19:31:09.327Z,101162.27
2022-10-13T19:36:23.468Z,101162.10
2022-10-13T19:41:32.398Z,101161.78
2022-10-13T19:46:41.760Z,101159.90
2022-10-13T19:51:49.217Z,101156.27
2022-10-13T19:56:55.118Z,101156.94
2022-10-13T20:02:01.009Z,101160.04
2022-10-13T20:07:06.833Z,101168.31
2022-10-13T20:12:13.385Z,101174.46
2022-10-13T20:17:19.736Z,101176.27
2022-10-13T20:22:25.694Z,101182.38
2022-10-13T20:27:31.699Z,101179.84
2022-10-13T20:32:37.660Z,101174.48
2022-10-13T20:37:43.537Z,101165.20
2022-10-13T20:42:52.751Z,101162.14
2022-10-13T20:47:59.206Z,101160.04
2022-10-13T20:53:05.861Z,101158.58
2022-10-13T20:58:11.659Z,101155.73
2022-10-13T21:03:19.415Z,101151.65
2022-10-13T21:08:26.498Z,101152.58
2022-10-13T21:13:32.656Z,101151.11
2022-10-13T21:18:39.674Z,101144.51
2022-10-13T21:23:52.950Z,101143.52
2022-10-13T21:28:59.501Z,101138.95
2022-10-13T21:34:05.448Z,101138.73
2022-10-13T21:39:11.469Z,101134.60
2022-10-13T21:44:17.577Z,101135.05
2022-10-13T21:49:23.507Z,101142.86
2022-10-13T21:54:29.198Z,101138.99
2022-10-13T21:59:35.199Z,101132.73
2022-10-13T22:04:40.981Z,101128.59
2022-10-13T22:09:46.902Z,101124.90
2022-10-13T22:14:53.013Z,101117.76
2022-10-13T22:19:58.993Z,101117.02
2022-10-13T22:25:05.841Z,101116.20
2022-10-13T22:30:12.957Z,101116.23
2022-10-13T22:35:18.887Z,101114.98
2022-10-13T22:40:24.727Z,101113.65
2022-10-13T22:45:30.706Z,101112.34
2022-10-13T22:50:37.427Z,101114.88
2022-10-13T22:55:43.974Z,101116.54
2022-10-13T23:00:49.832Z,101112.48
2022-10-13T23:05:55.783Z,101111.70
2022-10-13T23:11:02.007Z,101110.27
2022-10-13T23:16:10.914Z,101107.00
2022-10-13T23:21:19.038Z,101106.67
2022-10-13T23:26:25.129Z,101106.62
2022-10-13T23:31:32.748Z,101103.11
2022-10-13T23:36:39.067Z,101099.18
2022-10-13T23:41:45.253Z,101098.02
2022-10-13T23:46:52.569Z,101097.61
2022-10-13T23:52:00.713Z,101097.53
2022-10-13T23:57:06.670Z,101095.72
